Strona główna
METAR-TAF:

METAR-TAF

Lotnisko :

Port lotniczy Kano

Kano, Nigeria

Szerokość geograficzna: 12-03N, Długość geograficzna: 008-32E, wysokość: 476 m

Aktualna obserwacja pogody

Raport powstał 2 godziny i 8 minut temu, godzina 20:00 UTC
Wiatr 3 kt od północny wschód
Temperatura 20°C
Wilgotność 28%
Ciśnienie 1019 hPa
Widzialność 10 km lub więcej
Brak chmur poniżej 1500 m i brak chmur cumulonimbus

METAR: DNKN 292000Z 04003KT CAVOK 20/01 Q1019 NOSIG

czas: 23:08 (22:08 UTC)


TAF: brakujący

Obserwacja i prognoza pogody dla ponad 4000 lotnisk (raport METAR i TAF).

Dostępne stacje oznaczono żółtymi i czerwonymi punktami na mapie.

Najedź kursorem aby zobaczyć nazwę stacji.

Kliknij aby zobaczyć obserwacje i prognozy pogody.

Aby zmienić mapę: kliknij na zielony przycisk z czarnym krzyżykiem, aby powiększyć; na zielony przycisk z myślnikiem, aby pomniejszyć; na zielone strzałki, aby przejść do map sąsiednich.


METAR-TAF: